Etusivu
METAR-TAF:

METAR-TAF

Lentoasemat :

Kittilän lentoasema

Kittilä, Suomi

Leveyspiiri: 67-42N, Pituuspiiri: 024-51E, korkeus merenpinnasta: 196 m

Tämänhetkinen sää

Tämä raportti tehtiin 17 minuuttia sitten, kello 10.50 UTC
Tuuli 10 kn luoteesta, vaihdellen lännen ja pohjoisen/luoteen välillä
Lämpötila 2°C
Kosteus 69%
Ilmanpaine 984 hPa
Näkyvyys 10 km tai enemmän
Muutamia pilviä 2000 ft:n korkeudessa

METAR: EFKT 241050Z 31010KT 280V340 9999 FEW020 02/M03 Q0984

Aika: 13:07 (11:07 UTC)

Sääennuste

Tämä raportti tehtiin 26 minuuttia sitten, kello 10.41 UTC
Ennuste voimassa 24. päivästä klo 11 UTC - 24. päivään klo 18 UTC
Tuuli 12 kn lännestä/luoteesta
Näkyvyys 10 km tai enemmän
Hajonneita pilviä 2000 ft:n korkeudessa
Ajoittain
24. päivästä klo 14 UTC - 24. päivään klo 18 UTC
Näkyvyys: 5000 m
heikkoa lumisadetta

TAF: EFKT 241041Z 2411/2418 30012KT 9999 BKN020 TEMPO 2414/2418 5000 -SN

Säähavainnot ja -ennusteet yli 4000 lentoasemalta (METAR- ja TAF-raportit).

Käytössä olevat sääasemat on merkitty karttaan keltaisilla ja punaisilla pisteillä.

Aseta hiiri pisteen päälle nähdäksesi sääaseman nimen.

Klikkaa sitten nähdäksesi säähavainnot ja -ennusteet.

Kartan vaihtaminen: klikkaa mustalla rastilla varustettuja vihreitä pisteitä, niin voit zoomata sisään; viivalla varustettua vihreää pistettä, niin voit zoomata ulos tai vihreitä nuolia, niin pääset viereisille kartoille.


METAR-TAF: